Eight Ash Green, United Kingdom
Current Conditions -  °F | °C
As of 11:50 AM on Wednesday 28 Jan 2015 (Local Time) from EGUW Reporting Station
Rain Showers Rain Showers  
Wind Chill: 50°   Ceiling: Unl
Heat Index: 50°   Visibility: 6mi
Dew Point: 45°   Wind: 22mph
Humidity: 82%   Direction: 240°WSW
Pressure: 29.38"   Gusts: 37mph
Location:  51.9°N, 0.82°E
Report Text: EGUW 281150Z 24019G32KT 9999 VCSH SCT012 FEW020CB SCT070 10/07 Q0995 GRN TEMPO 28030G40KT 2000 +TSRA BKN005 BKN020CB YLO2
Loading
Personal Weather Stations






























Interactive Weather Map New forecast layout! Learn more

10-Day Weather Forecast

Advertisements
Track Severe Weather on mobile